Red Hook, NY

1:14 AM EDT on April 02, 2015 (GMT -0400)
Red Hook | | Change Station
CLOSE
Current Station
Personal Weather Station
Location: Red Hook, NY
Elevation: 256 ft
Nearby Weather Stations

Elev 256 ft 42.01 °N, 73.85 °W | Updated 48 seconds ago

Clear
Clear
23.0 °F
Feels Like 23 °F
N
2.0
Wind Variable Wind from ESE
Gusts 2.0 mph

Today
High -- | Low -- °F
--% Chance of Precip.
Yesterday
High -- | Low -- °F
Precip. -- in
6:36 AM 7:21 PM
Waxing Gibbous, 95% visible
Pressure 30.20 in
Visibility 10.0 miles
Clouds Clear
Windchill 23 °F
Dew Point 4 °F
Humidity 45%
Rainfall 0.00 in
Snow Depth Not available.
UV 0 out of 12
Pollen 4.50 out of 12
Air Quality Not available.
Flu Activity Not available.
METAR KPOU 020453Z 00000KT 10SM CLR M02/M09 A3020 RMK AO2 SLP226 T10221089 401111044

More Conditions Fewer Conditions

Pressure 30.20 in
Visibility 10.0 miles
Clouds Clear
Windchill 23 °F
Dew Point 4 °F
Humidity 45%
Rainfall 0.00 in
Snow Depth Not available.
UV 0 out of 12
Pollen 4.50 out of 12
Air Quality Not available.
Flu Activity Not available.
METAR KPOU 020453Z 00000KT 10SM CLR M02/M09 A3020 RMK AO2 SLP226 T10221089 401111044

More Conditions Fewer Conditions

10-Day Weather Forecast

Almanac

Astronomy

Apr. 02, 2015 Rise Set
Actual Time
Civil Twilight
Nautical Twilight
Astronomical Twilight
Moon
Length of Visible Light
Length of Day
Tomorrow will be .
, % of the Moon is Illuminated

Today's Extremes

State Highs State Lows

Community

WunderPhotos

Upload Photos

1,810,199 photos uploaded!

WunderBlogs® & News

Nearby

Air Quality

  Air Quality AQ Index Pollutant
Not available.

Snow Depth

Station Depth Elevation

Earthquake Activity

City Distance Mag. Time & Date
Minimum magnitude displayed is 2.5.

Coastal Water Temperatures

Place Temperature

Stations

Nearby Weather Stations

Station Location Temp. Windchill Dew Point Humidity Wind Precip. Elev Updated Type